Time;durP1;ratioP1;P1;durP2;ratioP2;P2;SDS_P1;SDS_P2;PMS_P1;PMS_P2;Temp;Humidity;BMP_temperature;BMP_pressure;BME280_temperature;BME280_humidity;BME280_pressure;Samples;Min_cycle;Max_cycle;Signal;HPM_P1;HPM_P2
2021/08/12 00:02:05;;;;;;;6.07;3.80;;;23.60;53.20;;;;;;5055309;28;20716;-67
2021/08/12 00:04:32;;;;;;;5.65;3.30;;;23.50;53.10;;;;;;5055096;28;20048;-67
2021/08/12 00:06:58;;;;;;;5.93;3.67;;;23.50;53.10;;;;;;5054785;28;20052;-67
2021/08/12 00:09:24;;;;;;;6.13;3.72;;;23.50;53.10;;;;;;5055227;28;20087;-67
2021/08/12 00:11:50;;;;;;;6.00;3.80;;;23.50;53.30;;;;;;5054922;28;20063;-67
2021/08/12 00:14:15;;;;;;;6.15;3.45;;;23.40;53.20;;;;;;5054966;28;20017;-67
2021/08/12 00:16:41;;;;;;;5.75;3.30;;;23.40;53.30;;;;;;5054907;28;20021;-67
2021/08/12 00:19:11;;;;;;;6.00;3.75;;;23.40;53.30;;;;;;5054882;28;20027;-67
2021/08/12 00:21:38;;;;;;;5.80;3.50;;;23.40;53.40;;;;;;5052733;28;20052;-67
2021/08/12 00:24:05;;;;;;;6.07;3.35;;;23.40;53.30;;;;;;5050288;28;20571;-67
2021/08/12 00:26:30;;;;;;;5.93;3.63;;;23.40;54.00;;;;;;5054548;28;20033;-67
2021/08/12 00:28:56;;;;;;;6.10;3.67;;;23.40;53.50;;;;;;5054803;28;20103;-67
2021/08/12 00:31:22;;;;;;;6.93;3.42;;;23.40;53.40;;;;;;5054624;28;20379;-66
2021/08/12 00:33:47;;;;;;;5.45;3.33;;;23.30;53.50;;;;;;5054394;28;20032;-67
2021/08/12 00:36:13;;;;;;;5.72;3.40;;;23.30;53.60;;;;;;5054656;28;20384;-67
2021/08/12 00:38:39;;;;;;;5.70;3.40;;;23.30;53.60;;;;;;5054209;28;20101;-66
2021/08/12 00:41:04;;;;;;;5.75;3.58;;;23.30;53.60;;;;;;5054641;28;20017;-67
2021/08/12 00:43:30;;;;;;;5.57;3.38;;;23.30;53.60;;;;;;5054525;28;20074;-66
2021/08/12 00:45:56;;;;;;;5.35;2.80;;;23.30;53.60;;;;;;5054434;28;20029;-66
2021/08/12 00:48:21;;;;;;;5.28;3.30;;;23.30;53.60;;;;;;5054777;28;20033;-67
2021/08/12 00:50:47;;;;;;;5.65;3.15;;;23.30;53.80;;;;;;5054526;28;20025;-66
2021/08/12 00:53:13;;;;;;;5.43;3.30;;;23.30;53.90;;;;;;5053417;28;20477;-67
2021/08/12 00:55:44;;;;;;;5.97;3.50;;;23.20;53.80;;;;;;5053796;28;20082;-67
2021/08/12 00:58:13;;;;;;;6.53;3.58;;;23.20;54.00;;;;;;5053208;28;20500;-67
2021/08/12 01:00:39;;;;;;;5.97;3.50;;;23.20;54.10;;;;;;5053951;28;20033;-67
2021/08/12 01:03:12;;;;;;;6.25;3.55;;;23.20;54.10;;;;;;5051562;28;20040;-66
2021/08/12 01:05:44;;;;;;;5.82;3.42;;;23.20;54.30;;;;;;5034119;28;20081;-66
2021/08/12 01:08:22;;;;;;;5.43;3.37;;;23.20;54.30;;;;;;5034170;28;20044;-66
2021/08/12 01:10:58;;;;;;;5.45;3.42;;;23.10;54.30;;;;;;5050884;28;20393;-66
2021/08/12 01:13:44;;;;;;;5.18;3.20;;;23.10;54.40;;;;;;5053908;28;20551;-66
2021/08/12 01:16:11;;;;;;;6.28;3.40;;;23.00;54.50;;;;;;5052548;28;20060;-66
2021/08/12 01:18:57;;;;;;;5.38;3.30;;;23.00;54.50;;;;;;5052441;28;20025;-66
2021/08/12 01:22:00;;;;;;;6.70;3.15;;;22.90;54.60;;;;;;5053514;28;20029;-66
2021/08/12 01:24:34;;;;;;;5.47;3.20;;;22.90;54.90;;;;;;5052376;28;20044;-66
2021/08/12 01:27:06;;;;;;;5.45;3.20;;;22.90;54.90;;;;;;5053574;28;20040;-66
2021/08/12 01:29:41;;;;;;;5.68;3.08;;;22.90;54.90;;;;;;5053778;28;20025;-66
2021/08/12 01:32:14;;;;;;;5.22;2.80;;;22.80;55.10;;;;;;5053330;28;20556;-66
2021/08/12 01:34:42;;;;;;;5.13;2.80;;;22.80;55.10;;;;;;5053250;28;20490;-66
2021/08/12 01:37:13;;;;;;;4.80;2.75;;;22.80;55.10;;;;;;5053094;28;20067;-66
2021/08/12 01:39:42;;;;;;;5.60;2.92;;;22.80;55.20;;;;;;5053420;28;20025;-67
2021/08/12 01:42:10;;;;;;;5.38;3.30;;;22.80;55.30;;;;;;5052995;28;20021;-67
2021/08/12 01:44:39;;;;;;;6.07;3.33;;;22.70;55.30;;;;;;5053217;28;20056;-67
2021/08/12 01:47:07;;;;;;;5.40;3.08;;;22.70;55.50;;;;;;5053196;28;20037;-67
2021/08/12 01:49:35;;;;;;;5.13;3.05;;;22.80;55.50;;;;;;5053306;28;20064;-66
2021/08/12 01:52:02;;;;;;;5.97;3.30;;;22.70;55.50;;;;;;5052994;28;20032;-66
2021/08/12 01:54:29;;;;;;;4.70;2.80;;;22.70;55.60;;;;;;5053061;28;20032;-66
2021/08/12 01:56:56;;;;;;;5.50;2.78;;;22.60;55.70;;;;;;5053212;28;20463;-66
2021/08/12 01:59:24;;;;;;;5.13;2.85;;;22.60;55.80;;;;;;5052014;28;20058;-67
2021/08/12 02:01:52;;;;;;;5.07;2.97;;;22.60;56.00;;;;;;5053105;28;20021;-67
2021/08/12 02:04:18;;;;;;;5.65;3.20;;;22.50;56.00;;;;;;5052700;28;20013;-67
2021/08/12 02:06:45;;;;;;;5.78;3.40;;;22.50;56.10;;;;;;5052362;28;20361;-67
2021/08/12 02:09:10;;;;;;;6.15;3.30;;;22.50;56.20;;;;;;5052991;28;20025;-66
2021/08/12 02:11:36;;;;;;;5.53;3.50;;;22.50;56.40;;;;;;5050881;28;20032;-67
2021/08/12 02:14:03;;;;;;;5.50;3.47;;;22.40;56.40;;;;;;5052799;28;20024;-66
2021/08/12 02:16:28;;;;;;;5.65;3.35;;;22.40;56.50;;;;;;5052569;28;20096;-67
2021/08/12 02:18:54;;;;;;;5.53;3.47;;;22.40;56.60;;;;;;5052285;28;20460;-66
2021/08/12 02:21:43;;;;;;;6.35;3.25;;;22.40;56.70;;;;;;5052475;28;20377;-67
2021/08/12 02:24:51;;;;;;;5.55;2.97;;;22.30;56.80;;;;;;5052601;28;20020;-67
2021/08/12 02:27:21;;;;;;;6.00;3.40;;;22.30;56.80;;;;;;5052495;28;20048;-66
2021/08/12 02:29:48;;;;;;;5.80;3.72;;;22.20;56.70;;;;;;5052222;28;20033;-67
2021/08/12 02:32:16;;;;;;;6.18;3.70;;;22.20;56.80;;;;;;5052260;28;20029;-66
2021/08/12 02:34:42;;;;;;;6.53;3.85;;;22.10;57.00;;;;;;5052460;28;20071;-66
2021/08/12 02:37:12;;;;;;;6.05;3.67;;;22.10;57.10;;;;;;5052431;28;20133;-66
2021/08/12 02:39:40;;;;;;;6.55;3.92;;;22.00;57.60;;;;;;5052376;28;20021;-67
2021/08/12 02:42:08;;;;;;;6.20;3.60;;;22.00;57.30;;;;;;5052224;28;20029;-65
2021/08/12 02:44:35;;;;;;;6.05;3.55;;;21.90;57.40;;;;;;5052164;28;20497;-65
2021/08/12 02:47:03;;;;;;;6.55;3.80;;;21.90;57.60;;;;;;5051744;28;20017;-65
2021/08/12 02:49:31;;;;;;;5.97;3.80;;;21.80;57.60;;;;;;5052096;28;20158;-66
2021/08/12 02:51:59;;;;;;;6.00;4.00;;;21.80;57.80;;;;;;5051933;28;20078;-65
2021/08/12 02:54:27;;;;;;;5.70;3.60;;;21.70;57.90;;;;;;5050897;28;20039;-65
2021/08/12 02:56:53;;;;;;;6.65;4.22;;;21.70;58.00;;;;;;5052077;28;20021;-65
2021/08/12 02:59:20;;;;;;;5.70;3.63;;;21.70;58.20;;;;;;5052012;28;20476;-65
2021/08/12 03:01:46;;;;;;;6.30;3.75;;;21.60;58.00;;;;;;5051935;28;20104;-65
2021/08/12 03:04:12;;;;;;;7.80;4.20;;;21.60;58.20;;;;;;5051816;28;20028;-66
2021/08/12 03:06:40;;;;;;;6.63;3.72;;;21.60;58.30;;;;;;5051080;28;20053;-66
2021/08/12 03:09:06;;;;;;;5.70;3.60;;;21.60;58.30;;;;;;5051846;28;20029;-66
2021/08/12 03:11:33;;;;;;;6.40;4.18;;;21.60;58.30;;;;;;5051852;28;20028;-67
2021/08/12 03:14:00;;;;;;;6.35;4.03;;;21.60;58.50;;;;;;5051203;28;20476;-66
2021/08/12 03:16:26;;;;;;;6.95;4.35;;;21.60;58.50;;;;;;5050721;28;20469;-66
2021/08/12 03:18:53;;;;;;;6.57;4.05;;;21.60;59.20;;;;;;5051247;28;20033;-67
2021/08/12 03:21:19;;;;;;;5.85;3.70;;;21.60;58.70;;;;;;5051619;28;20017;-66
2021/08/12 03:23:45;;;;;;;6.93;3.75;;;21.60;58.70;;;;;;5051484;28;20039;-66
2021/08/12 03:26:11;;;;;;;6.85;4.35;;;21.60;58.70;;;;;;5051498;28;20029;-67
2021/08/12 03:28:37;;;;;;;6.07;3.92;;;21.60;58.90;;;;;;5051040;28;20559;-66
2021/08/12 03:31:03;;;;;;;7.28;4.30;;;21.60;58.80;;;;;;5051785;28;20128;-66
2021/08/12 03:33:29;;;;;;;6.63;3.60;;;21.70;58.80;;;;;;5051533;28;20057;-66
2021/08/12 03:35:55;;;;;;;6.03;3.88;;;21.70;58.90;;;;;;5051545;28;20472;-66
2021/08/12 03:38:21;;;;;;;5.45;3.53;;;21.70;58.80;;;;;;5050935;28;20036;-66
2021/08/12 03:40:50;;;;;;;6.18;3.90;;;21.70;58.60;;;;;;5051245;28;20025;-66
2021/08/12 03:43:17;;;;;;;6.18;3.90;;;21.70;58.60;;;;;;5050284;28;20029;-66
2021/08/12 03:45:43;;;;;;;7.07;4.35;;;21.80;58.60;;;;;;5051354;28;20029;-66
2021/08/12 03:48:09;;;;;;;7.05;4.22;;;21.90;58.60;;;;;;5051387;28;20025;-65
2021/08/12 03:50:35;;;;;;;5.95;4.00;;;21.90;58.50;;;;;;5051175;28;20384;-66
2021/08/12 03:53:01;;;;;;;6.43;4.25;;;21.80;58.40;;;;;;5051131;28;20025;-66
2021/08/12 03:55:26;;;;;;;7.25;4.05;;;21.80;58.50;;;;;;5050763;28;20381;-66
2021/08/12 03:57:52;;;;;;;6.07;3.70;;;21.80;58.60;;;;;;5050770;28;20032;-66
2021/08/12 04:00:18;;;;;;;6.00;3.90;;;21.80;58.60;;;;;;5048423;28;20491;-66
2021/08/12 04:02:44;;;;;;;6.43;3.97;;;21.80;58.60;;;;;;5050793;28;20384;-66
2021/08/12 04:05:10;;;;;;;6.30;4.05;;;21.80;58.60;;;;;;5050853;28;20047;-66
2021/08/12 04:07:36;;;;;;;6.10;3.78;;;21.80;58.60;;;;;;5051265;28;20070;-66
2021/08/12 04:10:03;;;;;;;5.70;3.72;;;21.70;58.60;;;;;;5051077;28;20104;-66
2021/08/12 04:12:29;;;;;;;6.30;4.28;;;21.70;58.80;;;;;;5050563;28;20033;-66
2021/08/12 04:14:55;;;;;;;6.40;3.80;;;21.70;58.80;;;;;;5051065;28;20025;-68
2021/08/12 04:17:20;;;;;;;5.75;3.70;;;21.70;58.80;;;;;;5050263;28;20063;-67
2021/08/12 04:19:46;;;;;;;6.35;3.80;;;21.70;58.90;;;;;;5050856;28;20427;-67
2021/08/12 04:22:12;;;;;;;6.68;4.20;;;21.70;59.00;;;;;;5050383;28;20431;-67
2021/08/12 04:24:37;;;;;;;6.38;4.03;;;21.70;59.10;;;;;;5051011;28;20472;-68
2021/08/12 04:27:03;;;;;;;7.65;4.35;;;21.70;59.10;;;;;;5051179;28;20905;-68
2021/08/12 04:29:29;;;;;;;6.05;3.70;;;21.70;59.30;;;;;;5054142;28;20025;-68
2021/08/12 04:31:55;;;;;;;5.75;3.92;;;21.80;59.10;;;;;;5054297;28;20106;-67
2021/08/12 04:34:21;;;;;;;5.53;3.60;;;21.80;59.20;;;;;;5054614;28;20543;-67
2021/08/12 04:36:46;;;;;;;5.53;3.45;;;21.90;59.10;;;;;;5054190;28;20087;-68
2021/08/12 04:39:12;;;;;;;7.50;4.18;;;21.90;59.00;;;;;;5054364;28;20024;-68
2021/08/12 04:41:38;;;;;;;5.72;3.60;;;21.90;58.90;;;;;;5054474;28;20021;-67
2021/08/12 04:44:03;;;;;;;6.25;3.80;;;22.00;58.90;;;;;;5054270;28;20380;-67
2021/08/12 04:46:29;;;;;;;6.85;4.03;;;22.00;58.80;;;;;;5054095;28;20107;-67
2021/08/12 04:48:55;;;;;;;6.45;4.00;;;22.00;58.80;;;;;;5054746;28;20041;-66
2021/08/12 04:51:20;;;;;;;6.97;3.88;;;22.00;58.70;;;;;;5054246;28;20021;-66
2021/08/12 04:53:46;;;;;;;6.53;4.00;;;22.10;58.80;;;;;;5054031;28;20086;-67
2021/08/12 04:56:12;;;;;;;5.97;3.72;;;22.10;58.80;;;;;;5054026;28;20028;-66
2021/08/12 04:58:37;;;;;;;6.22;3.58;;;22.20;58.80;;;;;;5053790;28;20013;-66
2021/08/12 05:01:03;;;;;;;6.57;4.00;;;22.20;58.70;;;;;;5053771;28;20025;-67
2021/08/12 05:03:29;;;;;;;6.43;4.20;;;22.20;58.70;;;;;;5053344;28;20028;-67
2021/08/12 05:06:08;;;;;;;6.57;3.97;;;22.30;58.80;;;;;;5053940;28;20049;-67
2021/08/12 05:08:34;;;;;;;5.70;3.70;;;22.30;58.80;;;;;;5053987;28;20047;-67
2021/08/12 05:10:59;;;;;;;5.97;3.55;;;22.30;58.80;;;;;;5053906;28;20464;-67
2021/08/12 05:13:25;;;;;;;6.43;3.80;;;22.30;58.70;;;;;;5053633;28;20549;-67
2021/08/12 05:15:51;;;;;;;5.78;3.60;;;22.30;58.80;;;;;;5053652;28;20372;-67
2021/08/12 05:18:16;;;;;;;6.60;3.92;;;22.40;58.80;;;;;;5051974;28;20060;-67
2021/08/12 05:20:42;;;;;;;5.97;3.90;;;22.40;58.80;;;;;;5053465;28;20063;-67
2021/08/12 05:23:08;;;;;;;6.18;3.78;;;22.40;58.90;;;;;;5053509;28;20083;-67
2021/08/12 05:25:34;;;;;;;5.70;3.78;;;22.50;58.80;;;;;;5053410;28;20049;-67
2021/08/12 05:27:59;;;;;;;6.78;3.90;;;22.50;58.80;;;;;;5053534;28;20082;-67
2021/08/12 05:30:25;;;;;;;5.68;3.60;;;22.50;58.60;;;;;;5053295;28;20029;-67
2021/08/12 05:32:51;;;;;;;6.35;4.05;;;22.60;58.80;;;;;;5053207;28;20759;-67
2021/08/12 05:35:16;;;;;;;6.53;4.10;;;22.60;58.80;;;;;;5053117;28;20100;-67
2021/08/12 05:37:42;;;;;;;6.38;4.10;;;22.60;58.70;;;;;;5053043;28;20103;-66
2021/08/12 05:40:08;;;;;;;6.25;4.18;;;22.70;58.70;;;;;;5052300;28;20108;-66
2021/08/12 05:42:34;;;;;;;5.75;3.63;;;22.80;58.70;;;;;;5052859;28;20051;-66
2021/08/12 05:45:00;;;;;;;6.93;4.45;;;22.80;58.60;;;;;;5052865;28;20524;-66
2021/08/12 05:47:26;;;;;;;5.78;3.90;;;22.90;58.60;;;;;;5049652;28;20021;-66
2021/08/12 05:49:51;;;;;;;6.30;4.05;;;22.90;58.60;;;;;;5052568;28;20036;-67
2021/08/12 05:52:17;;;;;;;6.28;4.20;;;22.90;58.70;;;;;;5052352;28;20029;-67
2021/08/12 05:54:43;;;;;;;6.90;3.92;;;23.00;58.70;;;;;;5052821;28;20071;-67
2021/08/12 05:57:08;;;;;;;6.60;3.78;;;23.00;58.60;;;;;;5051491;28;20028;-66
2021/08/12 05:59:34;;;;;;;5.85;3.80;;;23.10;58.60;;;;;;5052880;28;20100;-67
2021/08/12 06:01:59;;;;;;;6.03;3.78;;;23.10;58.50;;;;;;5052369;28;20025;-67
2021/08/12 06:04:25;;;;;;;6.07;4.00;;;23.20;58.40;;;;;;5052158;28;20025;-67
2021/08/12 06:06:51;;;;;;;5.38;3.78;;;23.30;58.40;;;;;;5052225;28;20047;-67
2021/08/12 06:09:16;;;;;;;5.93;4.00;;;23.40;58.30;;;;;;5052667;28;20071;-67
2021/08/12 06:11:42;;;;;;;6.03;3.80;;;23.40;58.30;;;;;;5052628;28;20036;-67
2021/08/12 06:14:08;;;;;;;5.88;3.80;;;23.50;58.30;;;;;;5052294;28;20033;-67
2021/08/12 06:16:33;;;;;;;5.45;3.35;;;23.50;58.20;;;;;;5052086;28;20079;-67
2021/08/12 06:18:59;;;;;;;5.53;3.60;;;23.60;58.10;;;;;;5052452;28;20025;-67
2021/08/12 06:21:25;;;;;;;5.90;3.92;;;23.60;58.00;;;;;;5052478;28;20052;-67
2021/08/12 06:23:51;;;;;;;6.03;3.90;;;23.70;58.00;;;;;;5052490;28;20494;-67
2021/08/12 06:26:17;;;;;;;5.55;3.50;;;23.70;57.90;;;;;;5052410;28;20103;-67
2021/08/12 06:28:45;;;;;;;5.85;4.10;;;23.80;57.90;;;;;;5051906;28;20035;-67
2021/08/12 06:31:11;;;;;;;5.82;4.07;;;23.90;57.90;;;;;;5051959;28;20025;-67
2021/08/12 06:33:36;;;;;;;6.07;4.00;;;23.90;57.90;;;;;;5051827;28;20035;-67
2021/08/12 06:36:02;;;;;;;5.40;3.75;;;24.10;57.90;;;;;;5051689;28;20104;-68
2021/08/12 06:38:28;;;;;;;7.13;4.20;;;24.20;57.70;;;;;;5052450;28;20028;-66
2021/08/12 06:40:54;;;;;;;5.70;4.10;;;24.30;57.60;;;;;;5052489;28;20021;-67
2021/08/12 06:43:19;;;;;;;5.53;3.67;;;24.40;57.40;;;;;;5052194;28;20025;-67
2021/08/12 06:45:45;;;;;;;6.28;4.05;;;24.50;57.30;;;;;;5046878;28;20078;-66
2021/08/12 06:48:11;;;;;;;6.32;3.90;;;24.60;57.20;;;;;;5043111;28;20535;-67
2021/08/12 06:50:37;;;;;;;5.68;3.90;;;24.80;57.10;;;;;;5032352;28;20038;-66
2021/08/12 06:53:03;;;;;;;6.53;4.45;;;24.90;56.80;;;;;;5047943;28;20063;-66
2021/08/12 06:55:32;;;;;;;6.75;4.18;;;25.10;56.60;;;;;;5051943;28;20021;-66
2021/08/12 06:57:58;;;;;;;6.00;4.15;;;25.20;56.30;;;;;;5051737;28;20462;-67
2021/08/12 07:00:24;;;;;;;7.28;4.60;;;25.40;56.20;;;;;;5050467;28;20025;-67
2021/08/12 07:02:52;;;;;;;6.45;4.38;;;25.40;55.90;;;;;;5042895;28;20028;-67
2021/08/12 07:05:18;;;;;;;7.38;4.20;;;25.60;55.80;;;;;;5043392;28;20444;-67
2021/08/12 07:07:45;;;;;;;6.03;3.80;;;25.60;55.60;;;;;;5035334;28;20029;-67
2021/08/12 07:10:11;;;;;;;6.22;4.43;;;25.70;55.60;;;;;;5036414;28;20028;-67
2021/08/12 07:12:38;;;;;;;6.40;4.28;;;25.80;55.50;;;;;;5036429;28;20017;-67
2021/08/12 07:15:05;;;;;;;5.80;3.97;;;25.80;55.30;;;;;;5043402;28;20013;-67
2021/08/12 07:17:32;;;;;;;6.43;4.10;;;25.90;55.40;;;;;;5034215;28;20477;-67
2021/08/12 07:19:59;;;;;;;6.78;4.00;;;26.00;55.30;;;;;;5050760;28;20025;-68
2021/08/12 07:22:24;;;;;;;7.22;4.55;;;26.20;55.20;;;;;;5050958;28;20029;-68
2021/08/12 07:24:50;;;;;;;6.00;4.05;;;26.30;54.80;;;;;;5049357;28;20039;-67
2021/08/12 07:27:16;;;;;;;5.68;3.72;;;26.50;54.70;;;;;;5045058;28;20020;-68
2021/08/12 07:29:42;;;;;;;5.40;3.63;;;26.60;54.60;;;;;;5051219;28;20029;-70
2021/08/12 07:32:08;;;;;;;5.40;3.55;;;26.80;54.40;;;;;;5049379;28;20083;-67
2021/08/12 07:34:34;;;;;;;5.55;3.75;;;26.90;54.20;;;;;;5031992;28;20030;-67
2021/08/12 07:36:59;;;;;;;5.07;3.17;;;27.00;54.10;;;;;;5035071;28;20127;-67
2021/08/12 07:39:25;;;;;;;5.18;3.20;;;27.10;54.00;;;;;;5042160;28;20032;-68
2021/08/12 07:41:51;;;;;;;5.53;3.40;;;27.20;53.80;;;;;;5032775;28;20025;-68
2021/08/12 07:44:16;;;;;;;5.55;3.35;;;27.30;53.50;;;;;;5040207;28;20033;-66
2021/08/12 07:46:42;;;;;;;4.97;3.10;;;27.40;53.30;;;;;;5031406;28;20017;-67
2021/08/12 07:49:08;;;;;;;5.00;3.40;;;27.40;53.10;;;;;;5031162;28;20040;-68
2021/08/12 07:51:34;;;;;;;5.35;3.33;;;27.50;53.00;;;;;;5031199;28;20022;-67
2021/08/12 07:54:00;;;;;;;6.45;3.50;;;27.60;53.00;;;;;;5031131;28;20021;-68
2021/08/12 07:56:26;;;;;;;5.10;3.20;;;27.70;52.80;;;;;;5036484;28;20350;-68
2021/08/12 07:58:51;;;;;;;4.85;3.13;;;27.90;52.70;;;;;;5037108;28;20432;-68
2021/08/12 08:01:19;;;;;;;4.93;3.22;;;28.00;52.30;;;;;;5061605;28;20029;-68
2021/08/12 08:03:45;;;;;;;5.72;3.45;;;28.20;51.80;;;;;;5064147;28;20021;-68
2021/08/12 08:06:11;;;;;;;5.47;3.40;;;28.30;51.60;;;;;;5054788;28;20049;-67
2021/08/12 08:08:36;;;;;;;5.03;3.00;;;28.30;51.30;;;;;;5055085;28;20032;-69
2021/08/12 08:11:02;;;;;;;5.30;3.33;;;28.40;51.30;;;;;;5054955;28;20689;-69
2021/08/12 08:13:29;;;;;;;5.15;3.40;;;28.40;50.80;;;;;;5054625;28;20033;-68
2021/08/12 08:15:55;;;;;;;5.05;3.50;;;28.50;51.00;;;;;;5046143;28;20025;-68
2021/08/12 08:18:21;;;;;;;5.20;3.30;;;28.40;50.10;;;;;;5034136;28;20030;-67
2021/08/12 08:20:46;;;;;;;5.20;3.63;;;28.50;50.20;;;;;;5037098;28;20092;-68
2021/08/12 08:23:12;;;;;;;5.20;3.45;;;28.50;49.60;;;;;;5045212;28;20111;-68
2021/08/12 08:25:39;;;;;;;5.47;3.70;;;28.60;49.50;;;;;;5054167;28;20025;-68
2021/08/12 08:28:05;;;;;;;6.40;3.53;;;28.70;49.20;;;;;;5043670;28;20021;-68
2021/08/12 08:30:32;;;;;;;4.80;3.20;;;28.70;48.90;;;;;;5044921;28;20080;-68
2021/08/12 08:32:58;;;;;;;5.65;3.60;;;28.80;48.70;;;;;;5072338;28;20102;-68
2021/08/12 08:35:25;;;;;;;4.75;3.08;;;28.90;48.30;;;;;;5053745;28;20021;-68
2021/08/12 08:37:54;;;;;;;4.88;3.00;;;29.00;48.20;;;;;;5046306;28;20029;-69
2021/08/12 08:40:20;;;;;;;5.45;3.28;;;29.10;47.90;;;;;;5036219;28;20029;-69
2021/08/12 08:42:47;;;;;;;4.82;3.03;;;29.20;47.70;;;;;;5041563;28;20029;-68
2021/08/12 08:45:16;;;;;;;4.82;3.30;;;29.30;47.70;;;;;;5054416;28;20071;-68
2021/08/12 08:47:43;;;;;;;4.60;3.10;;;29.30;47.30;;;;;;5064385;28;20577;-69
2021/08/12 08:50:10;;;;;;;5.25;2.97;;;29.50;47.20;;;;;;5052885;28;20095;-69
2021/08/12 08:52:37;;;;;;;5.63;3.42;;;29.50;47.00;;;;;;5046494;28;20052;-69
2021/08/12 08:55:03;;;;;;;6.05;3.00;;;29.60;46.60;;;;;;5052033;28;20076;-68
2021/08/12 08:57:31;;;;;;;5.35;3.10;;;29.60;46.40;;;;;;5037894;28;20480;-70
2021/08/12 08:59:58;;;;;;;4.57;2.80;;;29.80;46.00;;;;;;5038110;28;20033;-69
2021/08/12 09:02:23;;;;;;;4.50;2.78;;;29.80;45.80;;;;;;5041778;28;20033;-69
2021/08/12 09:04:49;;;;;;;4.55;2.88;;;29.90;45.60;;;;;;5041585;28;20088;-68
2021/08/12 09:07:16;;;;;;;5.25;2.90;;;29.90;45.40;;;;;;5035363;28;20103;-70
2021/08/12 09:09:42;;;;;;;5.53;3.30;;;30.00;45.30;;;;;;5036148;28;20033;-68
2021/08/12 09:12:08;;;;;;;6.43;3.20;;;30.10;45.00;;;;;;5048642;28;20028;-69
2021/08/12 09:14:41;;;;;;;4.88;2.90;;;30.20;44.60;;;;;;5038666;28;20385;-68
2021/08/12 09:17:19;;;;;;;5.57;3.22;;;30.20;44.60;;;;;;5039125;28;20021;-69
2021/08/12 09:20:18;;;;;;;5.60;3.20;;;30.20;44.30;;;;;;5053462;28;20103;-65
2021/08/12 09:22:56;;;;;;;4.88;2.90;;;30.30;43.80;;;;;;5053433;28;20090;-66
2021/08/12 09:25:29;;;;;;;5.50;3.10;;;30.30;43.50;;;;;;5042917;28;20170;-65
2021/08/12 09:28:14;;;;;;;5.53;3.00;;;30.20;43.20;;;;;;5049102;28;20380;-65
2021/08/12 09:30:40;;;;;;;5.32;3.00;;;30.20;42.50;;;;;;5046575;28;20524;-66
2021/08/12 09:33:06;;;;;;;4.88;2.63;;;30.20;43.10;;;;;;5050095;28;20027;-66
2021/08/12 09:35:32;;;;;;;5.28;2.90;;;30.30;43.40;;;;;;5046747;28;20072;-66
2021/08/12 09:38:08;;;;;;;4.97;2.78;;;30.50;43.10;;;;;;5047612;28;20486;-65
2021/08/12 09:40:35;;;;;;;5.68;2.55;;;30.70;42.60;;;;;;5051525;28;20049;-65
2021/08/12 09:43:05;;;;;;;5.65;2.72;;;30.80;42.40;;;;;;5044569;28;20425;-66
2021/08/12 09:45:34;;;;;;;5.72;2.65;;;31.00;42.00;;;;;;5051530;28;20021;-66
2021/08/12 09:48:15;;;;;;;5.00;2.50;;;31.10;41.90;;;;;;5042181;28;20747;-65
2021/08/12 09:51:00;;;;;;;5.18;2.53;;;31.20;41.30;;;;;;5048662;28;20036;-65
2021/08/12 09:53:26;;;;;;;4.70;2.63;;;31.30;41.60;;;;;;5047927;28;20029;-66
2021/08/12 09:55:52;;;;;;;5.28;2.72;;;31.40;41.60;;;;;;5044267;28;20040;-64
2021/08/12 09:58:18;;;;;;;3.83;2.00;;;31.60;41.40;;;;;;5036413;28;20484;-65
2021/08/12 10:00:49;;;;;;;5.18;2.47;;;31.80;41.10;;;;;;5050138;28;20557;-65
2021/08/12 10:03:31;;;;;;;4.20;2.10;;;32.00;40.50;;;;;;5043075;28;20030;-64
2021/08/12 10:06:00;;;;;;;4.70;2.30;;;32.20;40.30;;;;;;5045954;28;20117;-65
2021/08/12 10:08:34;;;;;;;4.32;2.20;;;32.30;39.80;;;;;;5050158;28;20036;-64
2021/08/12 10:11:19;;;;;;;4.78;2.22;;;32.40;39.70;;;;;;5042199;28;20104;-64
2021/08/12 10:13:45;;;;;;;5.03;2.35;;;32.50;39.30;;;;;;5047196;28;20033;-64
2021/08/12 10:16:14;;;;;;;5.43;2.80;;;32.70;39.40;;;;;;5048955;28;20049;-64
2021/08/12 10:18:42;;;;;;;4.15;2.03;;;32.80;39.20;;;;;;5052578;28;20025;-66
2021/08/12 10:21:11;;;;;;;4.50;2.08;;;32.90;39.00;;;;;;5052367;28;20468;-64
2021/08/12 10:23:38;;;;;;;4.68;1.92;;;33.00;38.80;;;;;;5052096;28;20551;-63
2021/08/12 10:26:04;;;;;;;3.85;1.90;;;33.20;38.70;;;;;;5052157;28;20055;-67
2021/08/12 10:28:33;;;;;;;3.10;1.60;;;33.40;38.80;;;;;;5049246;28;20451;-63
2021/08/12 10:31:02;;;;;;;3.53;1.60;;;33.60;38.70;;;;;;5035128;28;20443;-63
2021/08/12 10:33:28;;;;;;;3.50;1.77;;;33.80;38.70;;;;;;5044629;28;20444;-64
2021/08/12 10:35:56;;;;;;;3.40;1.65;;;34.10;38.30;;;;;;5064121;28;20072;-64
2021/08/12 10:38:22;;;;;;;3.33;1.80;;;34.20;38.00;;;;;;5063390;28;20027;-63
2021/08/12 10:40:49;;;;;;;4.68;1.65;;;34.40;37.70;;;;;;5050965;28;20353;-64
2021/08/12 10:43:20;;;;;;;3.42;1.65;;;34.50;37.30;;;;;;5051132;28;20029;-63
2021/08/12 10:46:00;;;;;;;2.85;1.40;;;34.60;37.40;;;;;;5050248;28;20024;-64
2021/08/12 10:48:28;;;;;;;5.60;1.73;;;34.90;37.80;;;;;;5051760;28;20082;-64
2021/08/12 10:51:11;;;;;;;3.70;1.90;;;35.20;38.60;;;;;;5051839;28;20025;-64
2021/08/12 10:53:45;;;;;;;3.13;1.58;;;35.40;37.60;;;;;;5044546;28;20029;-63
2021/08/12 10:56:18;;;;;;;3.05;1.52;;;35.70;37.70;;;;;;5051997;28;20028;-63
2021/08/12 10:58:48;;;;;;;3.83;1.50;;;36.20;37.70;;;;;;5052099;28;20044;-64
2021/08/12 11:01:31;;;;;;;2.92;1.55;;;36.50;37.60;;;;;;5051852;28;20056;-63
2021/08/12 11:04:01;;;;;;;2.22;1.33;;;36.90;36.30;;;;;;5051586;28;20090;-63
2021/08/12 11:06:41;;;;;;;3.00;1.30;;;37.20;37.30;;;;;;5051214;28;20045;-64
2021/08/12 11:09:08;;;;;;;3.22;1.65;;;37.60;36.80;;;;;;5050544;28;20060;-63
2021/08/12 11:11:33;;;;;;;3.33;1.55;;;38.00;37.10;;;;;;5051545;28;20025;-65
2021/08/12 11:14:08;;;;;;;3.25;1.40;;;38.30;36.60;;;;;;5050327;28;20029;-64
2021/08/12 11:16:45;;;;;;;3.67;1.52;;;38.70;36.60;;;;;;5049350;28;20710;-62
2021/08/12 11:19:26;;;;;;;3.15;1.48;;;39.00;35.90;;;;;;5051739;28;20424;-63
2021/08/12 11:21:52;;;;;;;;;;;39.40;35.60;;;;;;5051578;28;20025;-64
2021/08/12 11:24:17;;;;;;;3.47;1.40;;;39.60;35.00;;;;;;5051573;28;19908;-64
2021/08/12 11:26:46;;;;;;;2.92;1.40;;;39.90;35.70;;;;;;5051708;28;20025;-65
2021/08/12 11:29:30;;;;;;;3.33;1.40;;;40.10;34.90;;;;;;5051584;28;20032;-64
2021/08/12 11:32:05;;;;;;;2.55;1.20;;;40.30;34.10;;;;;;5051275;28;20035;-64
2021/08/12 11:34:34;;;;;;;2.65;1.27;;;40.60;34.50;;;;;;5051545;28;20029;-63
2021/08/12 11:37:05;;;;;;;3.47;1.50;;;40.90;34.40;;;;;;5051286;28;20043;-64
2021/08/12 11:39:31;;;;;;;2.75;1.33;;;41.30;33.50;;;;;;5051186;28;20427;-64
2021/08/12 11:41:57;;;;;;;2.80;1.30;;;41.60;33.70;;;;;;5051019;28;20067;-64
2021/08/12 11:44:23;;;;;;;2.90;1.52;;;41.70;33.30;;;;;;5051446;28;20025;-63
2021/08/12 11:46:48;;;;;;;3.17;1.30;;;41.80;33.30;;;;;;5051352;28;20033;-64
2021/08/12 11:49:19;;;;;;;2.85;1.50;;;42.00;33.30;;;;;;5051213;28;20037;-64
2021/08/12 11:51:46;;;;;;;3.17;1.52;;;42.30;33.20;;;;;;5051061;28;20028;-63
2021/08/12 11:54:26;;;;;;;2.95;1.48;;;42.50;33.10;;;;;;5051159;28;20079;-64
2021/08/12 11:56:52;;;;;;;3.67;1.85;;;42.80;32.80;;;;;;5051276;28;20049;-64
2021/08/12 11:59:25;;;;;;;3.97;1.83;;;42.90;32.70;;;;;;5051359;28;20437;-64
2021/08/12 12:01:51;;;;;;;3.25;1.50;;;43.20;32.50;;;;;;5051030;28;20021;-64
2021/08/12 12:04:18;;;;;;;3.55;1.67;;;43.30;32.30;;;;;;5050933;28;20025;-78
2021/08/12 12:06:47;;;;;;;4.90;1.90;;;43.40;32.30;;;;;;5050771;28;20056;-66
2021/08/12 12:09:27;;;;;;;4.60;1.70;;;43.70;31.80;;;;;;5051088;28;20495;-64
2021/08/12 12:12:04;;;;;;;4.10;1.75;;;43.70;31.10;;;;;;5048865;28;20032;-69
2021/08/12 12:14:33;;;;;;;3.10;1.50;;;43.60;31.10;;;;;;5039362;28;20032;-68
2021/08/12 12:17:13;;;;;;;3.45;1.52;;;43.60;31.20;;;;;;5050520;28;20089;-70
2021/08/12 12:20:14;;;;;;;2.42;1.30;;;43.90;30.40;;;;;;5034109;28;20024;-69
2021/08/12 12:22:43;;;;;;;2.22;1.38;;;44.00;30.60;;;;;;5063171;28;20341;-69
2021/08/12 12:25:18;;;;;;;2.60;1.40;;;44.20;31.10;;;;;;5031556;28;20079;-69
2021/08/12 12:27:47;;;;;;;2.97;1.10;;;44.40;31.00;;;;;;5042109;28;20273;-68
2021/08/12 12:30:15;;;;;;;2.50;1.40;;;44.70;31.00;;;;;;5051197;28;20079;-70
2021/08/12 12:32:42;;;;;;;2.47;1.20;;;45.00;30.90;;;;;;5049226;28;20029;-70
2021/08/12 12:35:09;;;;;;;3.35;1.20;;;45.40;30.90;;;;;;5034093;28;20452;-66
2021/08/12 12:37:37;;;;;;;2.03;1.10;;;45.80;30.70;;;;;;5038028;28;20461;-71
2021/08/12 12:40:06;;;;;;;2.78;1.40;;;46.10;30.50;;;;;;5045821;28;20025;-70
2021/08/12 12:42:37;;;;;;;2.00;1.20;;;46.30;30.20;;;;;;5050227;28;20423;-69
2021/08/12 12:45:11;;;;;;;2.50;1.25;;;46.50;30.10;;;;;;5049858;28;20029;-69
2021/08/12 12:47:38;;;;;;;2.72;1.25;;;46.50;29.90;;;;;;5050542;28;20104;-69
2021/08/12 12:50:11;;;;;;;2.20;1.20;;;46.60;30.00;;;;;;5051762;28;20431;-67
2021/08/12 12:52:58;;;;;;;2.03;1.08;;;46.80;29.90;;;;;;5054173;28;20116;-69
2021/08/12 12:55:27;;;;;;;2.13;1.00;;;47.10;29.30;;;;;;5054034;28;20489;-70